O'neill, Nebraska
Current Conditions -  °F | °C
As of 4:55 AM on Sunday 26 Oct 2014 (Local Time) from KONL Reporting Station
Clear Clear  
Wind Chill: 52°   Ceiling: Unl
Heat Index: 52°   Visibility: 10mi
Dew Point: 38°   Wind: 13mph
Humidity: 58%   Direction: 130°SE
Pressure: 29.83"   Gusts: NA
Location:  42.47°N, 98.68°W
Report Text: KONL 260955Z AUTO 13011KT 10SM CLR 11/03 A2983 RMK AO2 T01110032
Loading
Personal Weather Stations






























Interactive Weather Map
Tropical Storm Tracking
New forecast layout! Learn more

10-Day Weather Forecast

Advertisements
Track Severe Weather on mobile